sensor_id;sensor_type;location;lat;lon;timestamp;temperature;humidity
82851;DHT22;72609;45.768;4.884;2024-03-06T00:02:05;8.40;72.80
82851;DHT22;72609;45.768;4.884;2024-03-06T00:04:30;8.40;73.50
82851;DHT22;72609;45.768;4.884;2024-03-06T00:06:56;8.40;74.10
82851;DHT22;72609;45.768;4.884;2024-03-06T00:09:23;8.40;72.10
82851;DHT22;72609;45.768;4.884;2024-03-06T00:11:49;8.40;73.60
82851;DHT22;72609;45.768;4.884;2024-03-06T00:14:16;8.40;73.50
82851;DHT22;72609;45.768;4.884;2024-03-06T00:16:43;8.40;73.80
82851;DHT22;72609;45.768;4.884;2024-03-06T00:19:08;8.40;72.60
82851;DHT22;72609;45.768;4.884;2024-03-06T00:21:34;8.40;72.70
82851;DHT22;72609;45.768;4.884;2024-03-06T00:24:01;8.30;71.30
82851;DHT22;72609;45.768;4.884;2024-03-06T00:26:27;8.30;71.70
82851;DHT22;72609;45.768;4.884;2024-03-06T00:28:53;8.20;72.40
82851;DHT22;72609;45.768;4.884;2024-03-06T00:31:18;8.20;72.90
82851;DHT22;72609;45.768;4.884;2024-03-06T00:33:44;8.20;72.50
82851;DHT22;72609;45.768;4.884;2024-03-06T00:36:09;8.20;72.80
82851;DHT22;72609;45.768;4.884;2024-03-06T00:38:35;8.20;72.90
82851;DHT22;72609;45.768;4.884;2024-03-06T00:41:01;8.30;73.20
82851;DHT22;72609;45.768;4.884;2024-03-06T00:43:26;8.30;73.50
82851;DHT22;72609;45.768;4.884;2024-03-06T00:45:52;8.30;73.80
82851;DHT22;72609;45.768;4.884;2024-03-06T00:48:17;8.40;72.90
82851;DHT22;72609;45.768;4.884;2024-03-06T00:50:45;8.30;73.30
82851;DHT22;72609;45.768;4.884;2024-03-06T00:53:11;8.30;72.80
82851;DHT22;72609;45.768;4.884;2024-03-06T00:55:36;8.30;73.10
82851;DHT22;72609;45.768;4.884;2024-03-06T00:58:02;8.20;72.80
82851;DHT22;72609;45.768;4.884;2024-03-06T01:00:29;8.20;72.80
82851;DHT22;72609;45.768;4.884;2024-03-06T01:02:54;8.20;73.70
82851;DHT22;72609;45.768;4.884;2024-03-06T01:05:20;8.20;72.60
82851;DHT22;72609;45.768;4.884;2024-03-06T01:07:45;8.20;72.70
82851;DHT22;72609;45.768;4.884;2024-03-06T01:10:11;8.30;73.40
82851;DHT22;72609;45.768;4.884;2024-03-06T01:12:37;8.30;73.30
82851;DHT22;72609;45.768;4.884;2024-03-06T01:15:03;8.30;73.90
82851;DHT22;72609;45.768;4.884;2024-03-06T01:17:29;8.30;73.60
82851;DHT22;72609;45.768;4.884;2024-03-06T01:19:54;8.30;73.80
82851;DHT22;72609;45.768;4.884;2024-03-06T01:22:20;8.30;73.70
82851;DHT22;72609;45.768;4.884;2024-03-06T01:24:46;8.40;73.60
82851;DHT22;72609;45.768;4.884;2024-03-06T01:27:15;8.40;73.20
82851;DHT22;72609;45.768;4.884;2024-03-06T01:29:41;8.40;73.80
82851;DHT22;72609;45.768;4.884;2024-03-06T01:32:07;8.30;73.30
82851;DHT22;72609;45.768;4.884;2024-03-06T01:34:33;8.30;73.30
82851;DHT22;72609;45.768;4.884;2024-03-06T01:36:58;8.40;73.10
82851;DHT22;72609;45.768;4.884;2024-03-06T01:39:24;8.40;73.20
82851;DHT22;72609;45.768;4.884;2024-03-06T01:41:51;8.40;72.70
82851;DHT22;72609;45.768;4.884;2024-03-06T01:44:17;8.40;73.50
82851;DHT22;72609;45.768;4.884;2024-03-06T01:46:46;8.40;73.50
82851;DHT22;72609;45.768;4.884;2024-03-06T01:49:15;8.40;73.20
82851;DHT22;72609;45.768;4.884;2024-03-06T01:51:42;8.40;72.70
82851;DHT22;72609;45.768;4.884;2024-03-06T01:54:10;8.30;73.10
82851;DHT22;72609;45.768;4.884;2024-03-06T01:56:40;8.30;73.20
82851;DHT22;72609;45.768;4.884;2024-03-06T01:59:09;8.30;73.60
82851;DHT22;72609;45.768;4.884;2024-03-06T02:01:35;8.30;73.10
82851;DHT22;72609;45.768;4.884;2024-03-06T02:04:01;8.30;73.90
82851;DHT22;72609;45.768;4.884;2024-03-06T02:06:28;8.30;73.80
82851;DHT22;72609;45.768;4.884;2024-03-06T02:08:54;8.30;73.50
82851;DHT22;72609;45.768;4.884;2024-03-06T02:11:20;8.30;73.30
82851;DHT22;72609;45.768;4.884;2024-03-06T02:13:45;8.30;73.00
82851;DHT22;72609;45.768;4.884;2024-03-06T02:16:11;8.30;72.90
82851;DHT22;72609;45.768;4.884;2024-03-06T02:18:37;8.20;73.50
82851;DHT22;72609;45.768;4.884;2024-03-06T02:21:03;8.20;73.50
82851;DHT22;72609;45.768;4.884;2024-03-06T02:23:30;8.20;73.30
82851;DHT22;72609;45.768;4.884;2024-03-06T02:25:56;8.30;73.80
82851;DHT22;72609;45.768;4.884;2024-03-06T02:28:21;8.20;73.70
82851;DHT22;72609;45.768;4.884;2024-03-06T02:30:50;8.30;73.90
82851;DHT22;72609;45.768;4.884;2024-03-06T02:33:16;8.20;73.40
82851;DHT22;72609;45.768;4.884;2024-03-06T02:35:43;8.20;73.70
82851;DHT22;72609;45.768;4.884;2024-03-06T02:38:10;8.30;74.30
82851;DHT22;72609;45.768;4.884;2024-03-06T02:40:35;8.20;73.60
82851;DHT22;72609;45.768;4.884;2024-03-06T02:43:01;8.20;73.10
82851;DHT22;72609;45.768;4.884;2024-03-06T02:45:27;8.20;73.70
82851;DHT22;72609;45.768;4.884;2024-03-06T02:47:52;8.20;73.30
82851;DHT22;72609;45.768;4.884;2024-03-06T02:50:18;8.10;73.80
82851;DHT22;72609;45.768;4.884;2024-03-06T02:52:43;8.20;73.50
82851;DHT22;72609;45.768;4.884;2024-03-06T02:55:09;8.20;73.70
82851;DHT22;72609;45.768;4.884;2024-03-06T02:57:35;8.20;73.70
82851;DHT22;72609;45.768;4.884;2024-03-06T03:00:00;8.20;73.40
82851;DHT22;72609;45.768;4.884;2024-03-06T03:02:26;8.20;73.70
82851;DHT22;72609;45.768;4.884;2024-03-06T03:04:52;8.20;73.70
82851;DHT22;72609;45.768;4.884;2024-03-06T03:07:18;8.20;73.80
82851;DHT22;72609;45.768;4.884;2024-03-06T03:09:45;8.10;73.60
82851;DHT22;72609;45.768;4.884;2024-03-06T03:12:11;8.10;74.00
82851;DHT22;72609;45.768;4.884;2024-03-06T03:14:37;8.10;74.20
82851;DHT22;72609;45.768;4.884;2024-03-06T03:17:02;8.10;74.10
82851;DHT22;72609;45.768;4.884;2024-03-06T03:19:29;8.10;73.70
82851;DHT22;72609;45.768;4.884;2024-03-06T03:21:54;8.10;74.50
82851;DHT22;72609;45.768;4.884;2024-03-06T03:24:20;8.10;74.60
82851;DHT22;72609;45.768;4.884;2024-03-06T03:26:47;8.20;74.60
82851;DHT22;72609;45.768;4.884;2024-03-06T03:29:12;8.10;73.40
82851;DHT22;72609;45.768;4.884;2024-03-06T03:31:38;8.10;74.30
82851;DHT22;72609;45.768;4.884;2024-03-06T03:34:05;8.10;73.90
82851;DHT22;72609;45.768;4.884;2024-03-06T03:36:30;8.10;74.60
82851;DHT22;72609;45.768;4.884;2024-03-06T03:38:56;8.00;73.60
82851;DHT22;72609;45.768;4.884;2024-03-06T03:41:21;7.70;74.20
82851;DHT22;72609;45.768;4.884;2024-03-06T03:43:47;7.60;75.20
82851;DHT22;72609;45.768;4.884;2024-03-06T03:46:13;7.70;76.20
82851;DHT22;72609;45.768;4.884;2024-03-06T03:48:39;7.80;75.60
82851;DHT22;72609;45.768;4.884;2024-03-06T03:51:05;7.90;75.30
82851;DHT22;72609;45.768;4.884;2024-03-06T03:53:35;8.00;75.10
82851;DHT22;72609;45.768;4.884;2024-03-06T03:56:02;8.10;75.20
82851;DHT22;72609;45.768;4.884;2024-03-06T03:58:28;8.10;75.30
82851;DHT22;72609;45.768;4.884;2024-03-06T04:00:54;8.10;74.90
82851;DHT22;72609;45.768;4.884;2024-03-06T04:03:21;8.10;75.00
82851;DHT22;72609;45.768;4.884;2024-03-06T04:05:48;8.00;74.50
82851;DHT22;72609;45.768;4.884;2024-03-06T04:08:13;7.90;75.50
82851;DHT22;72609;45.768;4.884;2024-03-06T04:10:39;7.90;76.50
82851;DHT22;72609;45.768;4.884;2024-03-06T04:13:04;8.00;75.80
82851;DHT22;72609;45.768;4.884;2024-03-06T04:15:31;8.00;75.90
82851;DHT22;72609;45.768;4.884;2024-03-06T04:17:57;8.10;75.70
82851;DHT22;72609;45.768;4.884;2024-03-06T04:20:23;8.00;75.20
82851;DHT22;72609;45.768;4.884;2024-03-06T04:22:48;7.80;76.10
82851;DHT22;72609;45.768;4.884;2024-03-06T04:25:16;7.70;76.00
82851;DHT22;72609;45.768;4.884;2024-03-06T04:27:42;7.70;76.60
82851;DHT22;72609;45.768;4.884;2024-03-06T04:30:08;7.70;76.80
82851;DHT22;72609;45.768;4.884;2024-03-06T04:32:34;7.80;76.40
82851;DHT22;72609;45.768;4.884;2024-03-06T04:35:00;7.80;76.40
82851;DHT22;72609;45.768;4.884;2024-03-06T04:37:25;7.90;76.40
82851;DHT22;72609;45.768;4.884;2024-03-06T04:39:52;7.90;76.00
82851;DHT22;72609;45.768;4.884;2024-03-06T04:42:17;7.60;76.60
82851;DHT22;72609;45.768;4.884;2024-03-06T04:44:45;7.30;78.20
82851;DHT22;72609;45.768;4.884;2024-03-06T04:47:11;7.40;78.60
82851;DHT22;72609;45.768;4.884;2024-03-06T04:49:36;7.50;78.20
82851;DHT22;72609;45.768;4.884;2024-03-06T04:52:02;7.70;77.90
82851;DHT22;72609;45.768;4.884;2024-03-06T04:54:28;7.70;77.50
82851;DHT22;72609;45.768;4.884;2024-03-06T04:56:54;7.80;77.40
82851;DHT22;72609;45.768;4.884;2024-03-06T04:59:20;8.00;77.30
82851;DHT22;72609;45.768;4.884;2024-03-06T05:01:46;8.00;76.70
82851;DHT22;72609;45.768;4.884;2024-03-06T05:04:11;8.00;76.60
82851;DHT22;72609;45.768;4.884;2024-03-06T05:06:37;7.90;77.00
82851;DHT22;72609;45.768;4.884;2024-03-06T05:09:03;8.00;77.00
82851;DHT22;72609;45.768;4.884;2024-03-06T05:11:29;8.00;77.10
82851;DHT22;72609;45.768;4.884;2024-03-06T05:13:57;8.00;76.90
82851;DHT22;72609;45.768;4.884;2024-03-06T05:16:23;8.00;77.00
82851;DHT22;72609;45.768;4.884;2024-03-06T05:18:49;8.10;77.00
82851;DHT22;72609;45.768;4.884;2024-03-06T05:21:15;7.90;77.00
82851;DHT22;72609;45.768;4.884;2024-03-06T05:23:41;7.80;77.60
82851;DHT22;72609;45.768;4.884;2024-03-06T05:26:06;7.90;78.10
82851;DHT22;72609;45.768;4.884;2024-03-06T05:28:32;7.90;77.90
82851;DHT22;72609;45.768;4.884;2024-03-06T05:30:58;7.80;77.80
82851;DHT22;72609;45.768;4.884;2024-03-06T05:33:26;7.90;77.90
82851;DHT22;72609;45.768;4.884;2024-03-06T05:35:53;7.90;77.70
82851;DHT22;72609;45.768;4.884;2024-03-06T05:38:19;7.90;77.90
82851;DHT22;72609;45.768;4.884;2024-03-06T05:40:45;7.90;77.80
82851;DHT22;72609;45.768;4.884;2024-03-06T05:43:11;7.90;77.70
82851;DHT22;72609;45.768;4.884;2024-03-06T05:45:36;7.90;78.10
82851;DHT22;72609;45.768;4.884;2024-03-06T05:48:02;7.90;78.00
82851;DHT22;72609;45.768;4.884;2024-03-06T05:50:29;7.80;78.40
82851;DHT22;72609;45.768;4.884;2024-03-06T05:52:57;7.80;78.70
82851;DHT22;72609;45.768;4.884;2024-03-06T05:55:23;7.70;78.70
82851;DHT22;72609;45.768;4.884;2024-03-06T05:57:48;7.80;78.80
82851;DHT22;72609;45.768;4.884;2024-03-06T06:00:14;7.80;78.80
82851;DHT22;72609;45.768;4.884;2024-03-06T06:02:40;7.80;78.80
82851;DHT22;72609;45.768;4.884;2024-03-06T06:05:06;7.80;78.60
82851;DHT22;72609;45.768;4.884;2024-03-06T06:07:32;7.90;78.50
82851;DHT22;72609;45.768;4.884;2024-03-06T06:09:58;7.90;78.60
82851;DHT22;72609;45.768;4.884;2024-03-06T06:12:23;7.90;78.60
82851;DHT22;72609;45.768;4.884;2024-03-06T06:14:49;8.00;78.60
82851;DHT22;72609;45.768;4.884;2024-03-06T06:17:15;8.00;78.40
82851;DHT22;72609;45.768;4.884;2024-03-06T06:19:42;7.90;78.40
82851;DHT22;72609;45.768;4.884;2024-03-06T06:22:09;7.90;78.70
82851;DHT22;72609;45.768;4.884;2024-03-06T06:24:38;7.80;79.10
82851;DHT22;72609;45.768;4.884;2024-03-06T06:27:04;7.70;79.30
82851;DHT22;72609;45.768;4.884;2024-03-06T06:29:30;7.70;79.50
82851;DHT22;72609;45.768;4.884;2024-03-06T06:31:56;7.80;79.50
82851;DHT22;72609;45.768;4.884;2024-03-06T06:34:22;7.80;79.50
82851;DHT22;72609;45.768;4.884;2024-03-06T06:36:48;7.90;79.40
82851;DHT22;72609;45.768;4.884;2024-03-06T06:39:14;7.90;79.20
82851;DHT22;72609;45.768;4.884;2024-03-06T06:41:39;7.90;79.00
82851;DHT22;72609;45.768;4.884;2024-03-06T06:44:05;7.80;79.70
82851;DHT22;72609;45.768;4.884;2024-03-06T06:46:30;7.70;80.00
82851;DHT22;72609;45.768;4.884;2024-03-06T06:48:56;7.70;80.20
82851;DHT22;72609;45.768;4.884;2024-03-06T06:51:22;7.60;80.60
82851;DHT22;72609;45.768;4.884;2024-03-06T06:53:48;7.70;80.70
82851;DHT22;72609;45.768;4.884;2024-03-06T06:56:14;7.70;80.50
82851;DHT22;72609;45.768;4.884;2024-03-06T06:58:40;7.80;80.00
82851;DHT22;72609;45.768;4.884;2024-03-06T07:01:08;7.80;79.80
82851;DHT22;72609;45.768;4.884;2024-03-06T07:03:33;7.90;79.60
82851;DHT22;72609;45.768;4.884;2024-03-06T07:05:59;7.90;79.40
82851;DHT22;72609;45.768;4.884;2024-03-06T07:08:25;7.90;79.50
82851;DHT22;72609;45.768;4.884;2024-03-06T07:10:50;7.80;79.50
82851;DHT22;72609;45.768;4.884;2024-03-06T07:13:18;7.70;79.60
82851;DHT22;72609;45.768;4.884;2024-03-06T07:15:44;7.70;80.10
82851;DHT22;72609;45.768;4.884;2024-03-06T07:18:09;7.60;80.60
82851;DHT22;72609;45.768;4.884;2024-03-06T07:20:35;7.60;80.30
82851;DHT22;72609;45.768;4.884;2024-03-06T07:23:01;7.60;79.70
82851;DHT22;72609;45.768;4.884;2024-03-06T07:25:26;7.70;80.30
82851;DHT22;72609;45.768;4.884;2024-03-06T07:27:52;7.80;80.20
82851;DHT22;72609;45.768;4.884;2024-03-06T07:30:18;7.90;79.90
82851;DHT22;72609;45.768;4.884;2024-03-06T07:32:43;8.00;79.30
82851;DHT22;72609;45.768;4.884;2024-03-06T07:35:09;8.00;79.20
82851;DHT22;72609;45.768;4.884;2024-03-06T07:37:35;8.10;78.90
82851;DHT22;72609;45.768;4.884;2024-03-06T07:40:01;8.20;79.00
82851;DHT22;72609;45.768;4.884;2024-03-06T07:42:26;8.20;78.80
82851;DHT22;72609;45.768;4.884;2024-03-06T07:44:52;8.30;78.60
82851;DHT22;72609;45.768;4.884;2024-03-06T07:47:18;8.10;76.60
82851;DHT22;72609;45.768;4.884;2024-03-06T07:49:44;8.00;77.60
82851;DHT22;72609;45.768;4.884;2024-03-06T07:52:10;7.80;78.00
82851;DHT22;72609;45.768;4.884;2024-03-06T07:54:35;7.80;78.90
82851;DHT22;72609;45.768;4.884;2024-03-06T07:57:01;7.90;79.10
82851;DHT22;72609;45.768;4.884;2024-03-06T07:59:27;8.00;78.70
82851;DHT22;72609;45.768;4.884;2024-03-06T08:01:52;8.10;78.30
82851;DHT22;72609;45.768;4.884;2024-03-06T08:04:18;8.10;78.30
82851;DHT22;72609;45.768;4.884;2024-03-06T08:06:44;8.20;78.30
82851;DHT22;72609;45.768;4.884;2024-03-06T08:09:09;8.20;78.10
82851;DHT22;72609;45.768;4.884;2024-03-06T08:11:35;8.20;77.60
82851;DHT22;72609;45.768;4.884;2024-03-06T08:14:01;8.30;77.60
82851;DHT22;72609;45.768;4.884;2024-03-06T08:16:30;8.30;77.50
82851;DHT22;72609;45.768;4.884;2024-03-06T08:18:56;8.40;77.20
82851;DHT22;72609;45.768;4.884;2024-03-06T08:21:24;8.40;77.70
82851;DHT22;72609;45.768;4.884;2024-03-06T08:23:50;8.40;77.00
82851;DHT22;72609;45.768;4.884;2024-03-06T08:26:16;8.40;77.20
82851;DHT22;72609;45.768;4.884;2024-03-06T08:28:41;8.40;76.80
82851;DHT22;72609;45.768;4.884;2024-03-06T08:31:07;8.50;76.80
82851;DHT22;72609;45.768;4.884;2024-03-06T08:33:33;8.50;76.80
82851;DHT22;72609;45.768;4.884;2024-03-06T08:35:59;8.50;76.50
82851;DHT22;72609;45.768;4.884;2024-03-06T08:38:25;8.60;76.50
82851;DHT22;72609;45.768;4.884;2024-03-06T08:40:50;8.60;75.90
82851;DHT22;72609;45.768;4.884;2024-03-06T08:43:16;8.50;76.30
82851;DHT22;72609;45.768;4.884;2024-03-06T08:45:42;8.50;76.40
82851;DHT22;72609;45.768;4.884;2024-03-06T08:48:08;8.60;76.50
82851;DHT22;72609;45.768;4.884;2024-03-06T08:50:34;8.60;75.60
82851;DHT22;72609;45.768;4.884;2024-03-06T08:53:00;8.60;76.20
82851;DHT22;72609;45.768;4.884;2024-03-06T08:55:27;8.70;76.20
82851;DHT22;72609;45.768;4.884;2024-03-06T08:57:53;8.70;76.00
82851;DHT22;72609;45.768;4.884;2024-03-06T09:00:19;8.90;75.60
82851;DHT22;72609;45.768;4.884;2024-03-06T09:02:45;9.00;74.50
82851;DHT22;72609;45.768;4.884;2024-03-06T09:05:11;9.10;75.10
82851;DHT22;72609;45.768;4.884;2024-03-06T09:07:38;9.20;74.60
82851;DHT22;72609;45.768;4.884;2024-03-06T09:12:31;9.30;73.90
82851;DHT22;72609;45.768;4.884;2024-03-06T09:14:57;9.40;73.90
82851;DHT22;72609;45.768;4.884;2024-03-06T09:17:23;9.50;73.50
82851;DHT22;72609;45.768;4.884;2024-03-06T09:19:48;9.50;73.20
82851;DHT22;72609;45.768;4.884;2024-03-06T09:22:14;9.50;73.40
82851;DHT22;72609;45.768;4.884;2024-03-06T09:24:39;9.50;73.60
82851;DHT22;72609;45.768;4.884;2024-03-06T09:27:05;9.50;73.70
82851;DHT22;72609;45.768;4.884;2024-03-06T09:29:31;9.60;73.70
82851;DHT22;72609;45.768;4.884;2024-03-06T09:31:56;9.60;73.40
82851;DHT22;72609;45.768;4.884;2024-03-06T09:34:22;9.70;73.30
82851;DHT22;72609;45.768;4.884;2024-03-06T09:36:49;9.70;73.30
82851;DHT22;72609;45.768;4.884;2024-03-06T09:39:16;9.70;72.60
82851;DHT22;72609;45.768;4.884;2024-03-06T09:41:51;9.70;70.70
82851;DHT22;72609;45.768;4.884;2024-03-06T09:44:18;9.80;72.10
82851;DHT22;72609;45.768;4.884;2024-03-06T09:46:44;9.80;71.10
82851;DHT22;72609;45.768;4.884;2024-03-06T09:49:12;9.70;71.40
82851;DHT22;72609;45.768;4.884;2024-03-06T09:51:47;9.70;71.70
82851;DHT22;72609;45.768;4.884;2024-03-06T09:54:16;9.80;72.40
82851;DHT22;72609;45.768;4.884;2024-03-06T09:56:45;9.80;72.20
82851;DHT22;72609;45.768;4.884;2024-03-06T09:59:11;9.80;72.20
82851;DHT22;72609;45.768;4.884;2024-03-06T10:01:53;9.90;71.80
82851;DHT22;72609;45.768;4.884;2024-03-06T10:06:46;9.90;71.00
82851;DHT22;72609;45.768;4.884;2024-03-06T10:09:12;9.90;70.00
82851;DHT22;72609;45.768;4.884;2024-03-06T10:11:41;9.90;70.50
82851;DHT22;72609;45.768;4.884;2024-03-06T10:14:07;9.90;71.50
82851;DHT22;72609;45.768;4.884;2024-03-06T10:16:33;9.90;71.60
82851;DHT22;72609;45.768;4.884;2024-03-06T10:19:17;9.90;71.40
82851;DHT22;72609;45.768;4.884;2024-03-06T10:21:46;9.80;70.90
82851;DHT22;72609;45.768;4.884;2024-03-06T10:24:20;9.70;70.80
82851;DHT22;72609;45.768;4.884;2024-03-06T10:26:46;9.70;71.00
82851;DHT22;72609;45.768;4.884;2024-03-06T10:29:18;9.70;71.60
82851;DHT22;72609;45.768;4.884;2024-03-06T10:31:55;9.80;71.00
82851;DHT22;72609;45.768;4.884;2024-03-06T10:34:25;9.70;69.30
82851;DHT22;72609;45.768;4.884;2024-03-06T10:36:55;9.60;70.50
82851;DHT22;72609;45.768;4.884;2024-03-06T10:39:21;9.60;70.80
82851;DHT22;72609;45.768;4.884;2024-03-06T10:41:55;9.60;71.10
82851;DHT22;72609;45.768;4.884;2024-03-06T10:44:22;9.40;69.80
82851;DHT22;72609;45.768;4.884;2024-03-06T10:46:55;9.40;71.10
82851;DHT22;72609;45.768;4.884;2024-03-06T10:49:23;9.40;70.00
82851;DHT22;72609;45.768;4.884;2024-03-06T10:51:50;9.30;69.60
82851;DHT22;72609;45.768;4.884;2024-03-06T10:54:17;9.20;68.10
82851;DHT22;72609;45.768;4.884;2024-03-06T10:56:43;9.10;67.80
82851;DHT22;72609;45.768;4.884;2024-03-06T10:59:12;9.20;69.30
82851;DHT22;72609;45.768;4.884;2024-03-06T11:01:39;9.40;68.40
82851;DHT22;72609;45.768;4.884;2024-03-06T11:04:05;9.50;68.10
82851;DHT22;72609;45.768;4.884;2024-03-06T11:06:32;9.50;67.80
82851;DHT22;72609;45.768;4.884;2024-03-06T11:08:59;9.50;67.20
82851;DHT22;72609;45.768;4.884;2024-03-06T11:11:24;9.30;66.20
82851;DHT22;72609;45.768;4.884;2024-03-06T11:14:01;9.30;67.80
82851;DHT22;72609;45.768;4.884;2024-03-06T11:16:30;9.40;67.20
82851;DHT22;72609;45.768;4.884;2024-03-06T11:19:06;9.50;68.00
82851;DHT22;72609;45.768;4.884;2024-03-06T11:21:32;9.60;65.80
82851;DHT22;72609;45.768;4.884;2024-03-06T11:24:17;9.60;66.80
82851;DHT22;72609;45.768;4.884;2024-03-06T11:26:55;9.70;66.60
82851;DHT22;72609;45.768;4.884;2024-03-06T11:29:27;9.80;66.10
82851;DHT22;72609;45.768;4.884;2024-03-06T11:32:05;9.90;65.90
82851;DHT22;72609;45.768;4.884;2024-03-06T11:34:33;10.00;64.90
82851;DHT22;72609;45.768;4.884;2024-03-06T11:37:02;10.00;65.30
82851;DHT22;72609;45.768;4.884;2024-03-06T11:39:33;9.90;64.10
82851;DHT22;72609;45.768;4.884;2024-03-06T11:42:02;9.90;65.60
82851;DHT22;72609;45.768;4.884;2024-03-06T11:44:31;10.00;65.20
82851;DHT22;72609;45.768;4.884;2024-03-06T11:47:08;10.00;65.40
82851;DHT22;72609;45.768;4.884;2024-03-06T11:49:34;10.00;64.50
82851;DHT22;72609;45.768;4.884;2024-03-06T11:52:07;10.00;65.20
82851;DHT22;72609;45.768;4.884;2024-03-06T11:54:33;10.10;65.60
82851;DHT22;72609;45.768;4.884;2024-03-06T11:57:01;10.00;65.10
82851;DHT22;72609;45.768;4.884;2024-03-06T11:59:29;10.00;64.30
82851;DHT22;72609;45.768;4.884;2024-03-06T12:02:00;10.00;65.90
82851;DHT22;72609;45.768;4.884;2024-03-06T12:04:35;10.00;63.30
82851;DHT22;72609;45.768;4.884;2024-03-06T12:07:03;10.00;64.30
82851;DHT22;72609;45.768;4.884;2024-03-06T12:09:37;10.00;64.90
82851;DHT22;72609;45.768;4.884;2024-03-06T12:12:03;10.00;65.00
82851;DHT22;72609;45.768;4.884;2024-03-06T12:14:29;10.00;64.70
82851;DHT22;72609;45.768;4.884;2024-03-06T12:16:58;10.00;64.50
82851;DHT22;72609;45.768;4.884;2024-03-06T12:19:28;10.00;64.70
82851;DHT22;72609;45.768;4.884;2024-03-06T12:21:53;10.00;65.90
82851;DHT22;72609;45.768;4.884;2024-03-06T12:24:19;10.10;66.20
82851;DHT22;72609;45.768;4.884;2024-03-06T12:26:45;10.10;65.50
82851;DHT22;72609;45.768;4.884;2024-03-06T12:29:17;10.10;64.60
82851;DHT22;72609;45.768;4.884;2024-03-06T12:31:44;10.20;65.30
82851;DHT22;72609;45.768;4.884;2024-03-06T12:34:14;10.10;65.60
82851;DHT22;72609;45.768;4.884;2024-03-06T12:36:42;10.20;65.10
82851;DHT22;72609;45.768;4.884;2024-03-06T12:39:08;10.20;65.00
82851;DHT22;72609;45.768;4.884;2024-03-06T12:41:39;10.20;65.70
82851;DHT22;72609;45.768;4.884;2024-03-06T12:44:05;10.20;65.40
82851;DHT22;72609;45.768;4.884;2024-03-06T12:46:32;10.30;65.60
82851;DHT22;72609;45.768;4.884;2024-03-06T12:48:57;10.30;65.10
82851;DHT22;72609;45.768;4.884;2024-03-06T12:51:23;10.30;64.80
82851;DHT22;72609;45.768;4.884;2024-03-06T12:53:48;10.30;63.90
82851;DHT22;72609;45.768;4.884;2024-03-06T12:56:14;10.30;64.10
82851;DHT22;72609;45.768;4.884;2024-03-06T12:58:42;10.30;64.40
82851;DHT22;72609;45.768;4.884;2024-03-06T13:01:07;10.30;64.20
82851;DHT22;72609;45.768;4.884;2024-03-06T13:03:33;10.20;63.60
82851;DHT22;72609;45.768;4.884;2024-03-06T13:05:59;10.20;62.20
82851;DHT22;72609;45.768;4.884;2024-03-06T13:08:25;10.10;64.00
82851;DHT22;72609;45.768;4.884;2024-03-06T13:10:50;10.10;63.70
82851;DHT22;72609;45.768;4.884;2024-03-06T13:13:16;10.10;64.80
82851;DHT22;72609;45.768;4.884;2024-03-06T13:15:41;10.10;64.60
82851;DHT22;72609;45.768;4.884;2024-03-06T13:18:08;10.00;64.70
82851;DHT22;72609;45.768;4.884;2024-03-06T13:20:34;10.00;65.60
82851;DHT22;72609;45.768;4.884;2024-03-06T13:23:00;10.00;65.10
82851;DHT22;72609;45.768;4.884;2024-03-06T13:25:25;10.00;66.20
82851;DHT22;72609;45.768;4.884;2024-03-06T13:27:51;10.00;68.50
82851;DHT22;72609;45.768;4.884;2024-03-06T13:30:20;9.90;70.20
82851;DHT22;72609;45.768;4.884;2024-03-06T13:32:46;9.80;71.20
82851;DHT22;72609;45.768;4.884;2024-03-06T13:35:12;9.70;72.10
82851;DHT22;72609;45.768;4.884;2024-03-06T13:37:45;9.60;71.80
82851;DHT22;72609;45.768;4.884;2024-03-06T13:40:11;9.60;72.40
82851;DHT22;72609;45.768;4.884;2024-03-06T13:42:39;9.60;72.60
82851;DHT22;72609;45.768;4.884;2024-03-06T13:45:06;9.50;72.70
82851;DHT22;72609;45.768;4.884;2024-03-06T13:47:37;9.50;72.70
82851;DHT22;72609;45.768;4.884;2024-03-06T13:50:04;9.50;72.70
82851;DHT22;72609;45.768;4.884;2024-03-06T13:52:32;9.60;72.80
82851;DHT22;72609;45.768;4.884;2024-03-06T13:54:57;9.60;72.10
82851;DHT22;72609;45.768;4.884;2024-03-06T13:57:23;9.60;72.30
82851;DHT22;72609;45.768;4.884;2024-03-06T13:59:48;9.60;72.30
82851;DHT22;72609;45.768;4.884;2024-03-06T14:02:14;9.60;72.40
82851;DHT22;72609;45.768;4.884;2024-03-06T14:04:40;9.60;72.40
82851;DHT22;72609;45.768;4.884;2024-03-06T14:07:06;9.70;72.20
82851;DHT22;72609;45.768;4.884;2024-03-06T14:09:32;9.70;71.90
82851;DHT22;72609;45.768;4.884;2024-03-06T14:11:58;9.70;71.70
82851;DHT22;72609;45.768;4.884;2024-03-06T14:14:23;9.80;70.40
82851;DHT22;72609;45.768;4.884;2024-03-06T14:16:49;9.70;69.80
82851;DHT22;72609;45.768;4.884;2024-03-06T14:19:15;9.70;70.30
82851;DHT22;72609;45.768;4.884;2024-03-06T14:21:41;9.70;70.70
82851;DHT22;72609;45.768;4.884;2024-03-06T14:24:06;9.70;70.80
82851;DHT22;72609;45.768;4.884;2024-03-06T14:26:33;9.70;70.70
82851;DHT22;72609;45.768;4.884;2024-03-06T14:28:59;9.70;70.40
82851;DHT22;72609;45.768;4.884;2024-03-06T14:31:25;9.80;70.70
82851;DHT22;72609;45.768;4.884;2024-03-06T14:33:50;9.80;70.30
82851;DHT22;72609;45.768;4.884;2024-03-06T14:36:17;9.90;70.00
82851;DHT22;72609;45.768;4.884;2024-03-06T14:38:43;9.90;69.30
82851;DHT22;72609;45.768;4.884;2024-03-06T14:41:13;9.90;68.30
82851;DHT22;72609;45.768;4.884;2024-03-06T14:43:38;9.90;68.10
82851;DHT22;72609;45.768;4.884;2024-03-06T14:46:07;9.90;68.30
82851;DHT22;72609;45.768;4.884;2024-03-06T14:48:34;9.90;67.80
82851;DHT22;72609;45.768;4.884;2024-03-06T14:51:00;9.90;67.90
82851;DHT22;72609;45.768;4.884;2024-03-06T14:53:26;10.00;67.90
82851;DHT22;72609;45.768;4.884;2024-03-06T14:55:51;10.00;67.20
82851;DHT22;72609;45.768;4.884;2024-03-06T14:58:17;9.90;66.00
82851;DHT22;72609;45.768;4.884;2024-03-06T15:00:42;9.90;66.20
82851;DHT22;72609;45.768;4.884;2024-03-06T15:03:08;10.00;67.00
82851;DHT22;72609;45.768;4.884;2024-03-06T15:05:35;10.10;66.10
82851;DHT22;72609;45.768;4.884;2024-03-06T15:08:00;10.10;65.60
82851;DHT22;72609;45.768;4.884;2024-03-06T15:10:26;10.10;65.50
82851;DHT22;72609;45.768;4.884;2024-03-06T15:12:52;10.10;64.50
82851;DHT22;72609;45.768;4.884;2024-03-06T15:15:18;10.10;64.40
82851;DHT22;72609;45.768;4.884;2024-03-06T15:17:44;10.00;64.00
82851;DHT22;72609;45.768;4.884;2024-03-06T15:20:11;10.00;63.70
82851;DHT22;72609;45.768;4.884;2024-03-06T15:22:37;9.90;64.00
82851;DHT22;72609;45.768;4.884;2024-03-06T15:25:10;9.90;64.00
82851;DHT22;72609;45.768;4.884;2024-03-06T15:27:39;9.80;65.30
82851;DHT22;72609;45.768;4.884;2024-03-06T15:30:06;9.80;62.90
82851;DHT22;72609;45.768;4.884;2024-03-06T15:32:33;9.70;63.70
82851;DHT22;72609;45.768;4.884;2024-03-06T15:34:59;9.70;63.90
82851;DHT22;72609;45.768;4.884;2024-03-06T15:37:25;9.70;64.90
82851;DHT22;72609;45.768;4.884;2024-03-06T15:39:55;9.80;65.40
82851;DHT22;72609;45.768;4.884;2024-03-06T15:42:21;9.90;63.10
82851;DHT22;72609;45.768;4.884;2024-03-06T15:44:51;9.80;62.30
82851;DHT22;72609;45.768;4.884;2024-03-06T15:47:18;9.80;62.10